createdAt,value
2023-05-03T00:00:56.278Z,7.80
2023-05-03T00:01:56.318Z,5.90
2023-05-03T00:02:56.285Z,6.40
2023-05-03T00:03:56.266Z,6.70
2023-05-03T00:04:56.274Z,6.30
2023-05-03T00:05:56.229Z,6.10
2023-05-03T00:06:56.222Z,6.50
2023-05-03T00:07:56.222Z,6.20
2023-05-03T00:08:56.189Z,8.00
2023-05-03T00:09:56.190Z,7.00
2023-05-03T00:10:56.169Z,7.00
2023-05-03T00:11:56.157Z,4.60
2023-05-03T00:12:56.180Z,6.80
2023-05-03T00:13:56.150Z,6.50
2023-05-03T00:14:56.131Z,5.10
2023-05-03T00:15:56.133Z,5.40
2023-05-03T00:16:56.149Z,7.20
2023-05-03T00:17:56.141Z,6.40
2023-05-03T00:18:56.097Z,7.40
2023-05-03T00:19:56.088Z,5.60
2023-05-03T00:20:56.059Z,5.50
2023-05-03T00:21:56.055Z,7.20
2023-05-03T00:22:56.063Z,6.40
2023-05-03T00:23:56.044Z,6.70
2023-05-03T00:24:56.046Z,5.70
2023-05-03T00:25:56.026Z,7.50
2023-05-03T00:26:56.007Z,6.30
2023-05-03T00:27:56.056Z,6.80
2023-05-03T00:28:56.011Z,6.20
2023-05-03T00:29:56.012Z,7.50
2023-05-03T00:30:56.036Z,6.10
2023-05-03T00:31:55.964Z,7.90
2023-05-03T00:32:56.085Z,5.60
2023-05-03T00:33:55.949Z,6.90
2023-05-03T00:34:55.935Z,6.90
2023-05-03T00:35:55.917Z,6.00
2023-05-03T00:36:55.898Z,6.50
2023-05-03T00:37:55.913Z,6.40
2023-05-03T00:38:55.874Z,7.30
2023-05-03T00:39:55.893Z,7.40
2023-05-03T00:40:55.888Z,8.40
2023-05-03T00:41:55.864Z,8.80
2023-05-03T00:42:55.868Z,4.50
2023-05-03T00:43:55.857Z,6.10
2023-05-03T00:44:56.136Z,6.10
2023-05-03T00:46:01.998Z,7.40
2023-05-03T00:46:55.948Z,5.90
2023-05-03T00:47:55.903Z,7.50
2023-05-03T00:48:55.787Z,5.90
2023-05-03T00:49:55.792Z,7.70
2023-05-03T00:50:55.773Z,5.60
2023-05-03T00:51:55.773Z,6.70
2023-05-03T00:52:55.780Z,6.50
2023-05-03T00:53:55.749Z,6.50
2023-05-03T00:54:55.715Z,10.40
2023-05-03T00:55:55.712Z,5.40
2023-05-03T00:56:55.694Z,6.20
2023-05-03T00:57:55.721Z,5.60
2023-05-03T00:58:55.693Z,7.80
2023-05-03T00:59:55.661Z,6.40
2023-05-03T01:00:55.653Z,7.60
2023-05-03T01:01:55.687Z,5.50
2023-05-03T01:02:55.780Z,6.30
2023-05-03T01:03:55.679Z,6.40
2023-05-03T01:04:55.636Z,8.10
2023-05-03T01:05:55.609Z,5.60
2023-05-03T01:07:01.631Z,6.90
2023-05-03T01:07:55.634Z,7.90
2023-05-03T01:08:55.618Z,7.10
2023-05-03T01:09:55.575Z,6.00
2023-05-03T01:10:55.555Z,5.40
2023-05-03T01:11:55.579Z,6.90
2023-05-03T01:12:55.557Z,5.80
2023-05-03T01:13:55.535Z,5.90
2023-05-03T01:14:55.534Z,5.30
2023-05-03T01:15:55.566Z,6.80
2023-05-03T01:16:55.510Z,5.60
2023-05-03T01:17:55.557Z,5.60
2023-05-03T01:18:55.468Z,5.70
2023-05-03T01:19:55.463Z,5.30
2023-05-03T01:20:55.465Z,5.70
2023-05-03T01:21:55.441Z,7.60
2023-05-03T01:22:55.443Z,6.40
2023-05-03T01:23:55.423Z,6.70
2023-05-03T01:24:55.412Z,8.10
2023-05-03T01:25:55.410Z,7.20
2023-05-03T01:26:55.418Z,6.30
2023-05-03T01:27:55.390Z,6.90
2023-05-03T01:28:55.379Z,7.10
2023-05-03T01:29:55.371Z,5.40
2023-05-03T01:30:55.354Z,6.50
2023-05-03T01:31:55.374Z,6.20
2023-05-03T01:32:55.408Z,5.30
2023-05-03T01:33:55.310Z,6.40
2023-05-03T01:34:55.307Z,7.40
2023-05-03T01:35:55.312Z,5.90
2023-05-03T01:36:55.308Z,7.00
2023-05-03T01:37:55.289Z,5.70
2023-05-03T01:38:55.267Z,6.00
2023-05-03T01:39:55.246Z,5.80
2023-05-03T01:40:55.265Z,5.30
2023-05-03T01:41:55.244Z,5.50
2023-05-03T01:42:55.255Z,7.70
2023-05-03T01:43:55.228Z,5.80
2023-05-03T01:44:55.217Z,7.00
2023-05-03T01:45:55.234Z,7.00
2023-05-03T01:46:55.201Z,5.40
2023-05-03T01:47:55.239Z,5.60
2023-05-03T01:48:55.191Z,6.00
2023-05-03T01:49:55.192Z,6.60
2023-05-03T01:50:55.158Z,7.30
2023-05-03T01:51:55.149Z,7.50
2023-05-03T01:52:55.178Z,6.20
2023-05-03T01:53:55.116Z,6.10
2023-05-03T01:54:55.135Z,5.60
2023-05-03T01:55:55.111Z,6.70
2023-05-03T01:56:55.081Z,6.70
2023-05-03T01:57:55.086Z,5.50
2023-05-03T01:58:55.079Z,7.10
2023-05-03T01:59:55.056Z,5.50
2023-05-03T02:00:55.106Z,5.90
2023-05-03T02:01:55.033Z,6.00
2023-05-03T02:02:55.124Z,6.90
2023-05-03T02:03:55.036Z,6.50
2023-05-03T02:04:55.176Z,6.40
2023-05-03T02:05:55.002Z,5.40
2023-05-03T02:06:54.989Z,6.20
2023-05-03T02:07:54.992Z,6.70
2023-05-03T02:08:54.989Z,5.60
2023-05-03T02:09:54.960Z,5.50
2023-05-03T02:10:54.942Z,5.90
2023-05-03T02:11:54.946Z,7.70
2023-05-03T02:12:54.940Z,5.00
2023-05-03T02:13:54.928Z,6.90
2023-05-03T02:14:54.914Z,7.10
2023-05-03T02:15:54.884Z,6.10
2023-05-03T02:16:54.906Z,5.30
2023-05-03T02:17:54.929Z,6.50
2023-05-03T02:18:54.888Z,6.50
2023-05-03T02:19:54.857Z,6.30
2023-05-03T02:20:54.852Z,7.50
2023-05-03T02:21:54.827Z,5.60
2023-05-03T02:22:54.836Z,6.70
2023-05-03T02:23:54.823Z,7.60
2023-05-03T02:24:54.797Z,6.10
2023-05-03T02:25:54.817Z,6.00
2023-05-03T02:26:54.796Z,5.90
2023-05-03T02:27:54.792Z,7.00
2023-05-03T02:28:54.773Z,6.20
2023-05-03T02:29:54.741Z,5.70
2023-05-03T02:30:54.776Z,7.70
2023-05-03T02:31:54.763Z,6.60
2023-05-03T02:32:54.807Z,8.30
2023-05-03T02:33:54.720Z,6.90
2023-05-03T02:34:54.706Z,7.10
2023-05-03T02:35:54.709Z,11.00
2023-05-03T02:36:54.682Z,8.10
2023-05-03T02:37:54.679Z,7.40
2023-05-03T02:38:54.653Z,7.90
2023-05-03T02:39:54.640Z,7.80
2023-05-03T02:40:54.677Z,7.60
2023-05-03T02:41:54.640Z,6.20
2023-05-03T02:42:54.638Z,6.40
2023-05-03T02:43:54.616Z,6.20
2023-05-03T02:44:54.601Z,5.70
2023-05-03T02:45:54.626Z,4.70
2023-05-03T02:46:54.626Z,7.00
2023-05-03T02:47:54.629Z,7.40
2023-05-03T02:48:54.572Z,6.80
2023-05-03T02:49:54.559Z,5.90
2023-05-03T02:50:54.551Z,6.90
2023-05-03T02:51:54.535Z,8.30
2023-05-03T02:52:54.528Z,6.20
2023-05-03T02:53:54.512Z,6.70
2023-05-03T02:54:54.488Z,8.20
2023-05-03T02:55:54.488Z,7.10
2023-05-03T02:56:54.477Z,7.40
2023-05-03T02:57:54.514Z,6.90
2023-05-03T02:58:54.400Z,7.80
2023-05-03T02:59:54.395Z,7.10
2023-05-03T03:00:54.444Z,7.70
2023-05-03T03:01:54.461Z,6.90
2023-05-03T03:02:54.489Z,7.80
2023-05-03T03:03:54.526Z,6.00
2023-05-03T03:04:54.435Z,6.00
2023-05-03T03:05:54.378Z,5.80
2023-05-03T03:06:54.457Z,6.40
2023-05-03T03:07:54.421Z,6.70
2023-05-03T03:08:54.347Z,6.00
2023-05-03T03:09:54.343Z,6.50
2023-05-03T03:10:54.344Z,7.10
2023-05-03T03:11:54.321Z,6.30
2023-05-03T03:12:54.329Z,5.20
2023-05-03T03:13:54.343Z,5.70
2023-05-03T03:14:54.302Z,5.60
2023-05-03T03:15:54.349Z,5.70
2023-05-03T03:16:54.269Z,9.30
2023-05-03T03:17:54.289Z,6.90
2023-05-03T03:18:54.199Z,7.90
2023-05-03T03:19:54.208Z,5.40
2023-05-03T03:20:54.181Z,6.80
2023-05-03T03:21:54.158Z,5.50
2023-05-03T03:22:54.177Z,6.00
2023-05-03T03:23:54.157Z,9.50
2023-05-03T03:24:54.172Z,6.90
2023-05-03T03:25:54.198Z,5.40
2023-05-03T03:26:54.131Z,7.10
2023-05-03T03:27:54.135Z,5.80
2023-05-03T03:28:54.174Z,6.80
2023-05-03T03:29:54.120Z,7.60
2023-05-03T03:30:54.153Z,6.70
2023-05-03T03:31:54.160Z,7.00
2023-05-03T03:32:54.150Z,6.60
2023-05-03T03:33:54.047Z,6.40
2023-05-03T03:34:54.061Z,8.70
2023-05-03T03:35:54.018Z,7.70
2023-05-03T03:36:54.018Z,6.30
2023-05-03T03:37:54.056Z,7.80
2023-05-03T03:38:54.008Z,7.20
2023-05-03T03:39:53.976Z,7.10
2023-05-03T03:40:53.994Z,6.10
2023-05-03T03:41:53.966Z,7.60
2023-05-03T03:42:53.984Z,6.80
2023-05-03T03:43:53.947Z,7.30
2023-05-03T03:44:53.990Z,6.80
2023-05-03T03:45:53.930Z,9.70
2023-05-03T03:46:53.964Z,5.20
2023-05-03T03:47:54.060Z,6.50
2023-05-03T03:48:53.896Z,6.20
2023-05-03T03:49:53.866Z,7.60
2023-05-03T03:50:53.876Z,8.50
2023-05-03T03:51:53.847Z,6.90
2023-05-03T03:52:53.873Z,7.30
2023-05-03T03:53:53.834Z,5.70
2023-05-03T03:54:53.831Z,6.00
2023-05-03T03:55:53.813Z,7.60
2023-05-03T03:56:53.812Z,8.00
2023-05-03T03:57:53.793Z,8.40
2023-05-03T03:58:53.818Z,8.30
2023-05-03T03:59:53.768Z,7.50
2023-05-03T04:00:53.793Z,8.30
2023-05-03T04:01:53.756Z,6.30
2023-05-03T04:02:53.852Z,8.90
2023-05-03T04:03:53.842Z,6.70
2023-05-03T04:04:53.739Z,8.60
2023-05-03T04:05:53.749Z,7.70
2023-05-03T04:06:53.741Z,7.50
2023-05-03T04:07:53.714Z,7.30
2023-05-03T04:08:53.694Z,7.70
2023-05-03T04:09:53.671Z,6.30
2023-05-03T04:10:53.671Z,7.20
2023-05-03T04:11:53.656Z,9.30
2023-05-03T04:12:53.680Z,9.30
2023-05-03T04:13:53.674Z,9.20
2023-05-03T04:14:53.632Z,8.50
2023-05-03T04:15:53.619Z,8.50
2023-05-03T04:16:53.664Z,8.70
2023-05-03T04:17:53.655Z,8.60
2023-05-03T04:18:53.665Z,8.40
2023-05-03T04:19:53.570Z,7.30
2023-05-03T04:20:53.562Z,8.30
2023-05-03T04:21:53.544Z,8.80
2023-05-03T04:22:53.564Z,7.30
2023-05-03T04:23:53.520Z,8.00
2023-05-03T04:24:53.513Z,7.40
2023-05-03T04:25:53.513Z,7.40
2023-05-03T04:26:53.553Z,8.90
2023-05-03T04:27:53.493Z,9.90
2023-05-03T04:28:53.503Z,9.10
2023-05-03T04:29:53.467Z,6.90
2023-05-03T04:30:53.529Z,9.90
2023-05-03T04:31:53.465Z,7.90
2023-05-03T04:32:53.497Z,9.00
2023-05-03T04:33:53.440Z,8.80
2023-05-03T04:34:54.019Z,7.10
2023-05-03T04:35:53.406Z,9.60
2023-05-03T04:36:53.426Z,9.50
2023-05-03T04:37:53.380Z,7.40
2023-05-03T04:38:53.379Z,9.30
2023-05-03T04:39:53.367Z,7.80
2023-05-03T04:40:53.368Z,9.20
2023-05-03T04:41:53.360Z,8.50
2023-05-03T04:42:53.330Z,9.30
2023-05-03T04:43:53.334Z,11.10
2023-05-03T04:44:53.322Z,11.00
2023-05-03T04:45:53.355Z,11.30
2023-05-03T04:46:53.450Z,7.70
2023-05-03T04:47:53.363Z,9.60
2023-05-03T04:48:53.280Z,11.50
2023-05-03T04:49:53.275Z,9.60
2023-05-03T04:50:53.269Z,7.90
2023-05-03T04:51:54.437Z,9.40
2023-05-03T04:52:53.273Z,9.30
2023-05-03T04:53:53.205Z,9.20
2023-05-03T04:54:53.202Z,8.80
2023-05-03T04:55:53.198Z,10.00
2023-05-03T04:56:53.221Z,10.10
2023-05-03T04:57:53.185Z,10.10
2023-05-03T04:58:53.168Z,9.00
2023-05-03T04:59:53.160Z,8.50
2023-05-03T05:00:53.158Z,8.00
2023-05-03T05:01:53.153Z,7.60
2023-05-03T05:02:53.244Z,10.00
2023-05-03T05:03:53.196Z,10.60
2023-05-03T05:04:53.102Z,8.90
2023-05-03T05:05:53.105Z,9.40
2023-05-03T05:06:53.316Z,11.30
2023-05-03T05:07:53.092Z,9.40
2023-05-03T05:08:53.068Z,9.90
2023-05-03T05:09:53.065Z,9.00
2023-05-03T05:10:53.040Z,9.60
2023-05-03T05:11:54.655Z,8.70
2023-05-03T05:12:53.041Z,8.50
2023-05-03T05:13:53.019Z,8.30
2023-05-03T05:14:52.990Z,9.70
2023-05-03T05:15:53.022Z,9.10
2023-05-03T05:16:52.984Z,8.70
2023-05-03T05:17:53.081Z,8.90
2023-05-03T05:18:52.954Z,9.10
2023-05-03T05:19:52.956Z,8.40
2023-05-03T05:20:52.952Z,12.20
2023-05-03T05:21:52.939Z,9.90
2023-05-03T05:22:52.923Z,12.00
2023-05-03T05:23:52.920Z,8.60
2023-05-03T05:24:52.902Z,9.00
2023-05-03T05:25:52.907Z,10.00
2023-05-03T05:26:52.884Z,11.30
2023-05-03T05:27:52.891Z,8.80
2023-05-03T05:28:52.865Z,9.50
2023-05-03T05:29:52.874Z,8.30
2023-05-03T05:30:52.858Z,8.20
2023-05-03T05:31:53.038Z,11.40
2023-05-03T05:32:52.894Z,8.70
2023-05-03T05:33:52.819Z,8.60
2023-05-03T05:34:52.806Z,7.90
2023-05-03T05:35:52.790Z,9.30
2023-05-03T05:36:52.782Z,9.90
2023-05-03T05:37:52.785Z,9.80
2023-05-03T05:38:52.763Z,12.70
2023-05-03T05:39:52.767Z,12.20
2023-05-03T05:40:52.746Z,8.20
2023-05-03T05:41:52.778Z,11.20
2023-05-03T05:42:52.738Z,7.90
2023-05-03T05:43:52.701Z,11.30
2023-05-03T05:44:52.728Z,9.10
2023-05-03T05:45:52.697Z,9.40
2023-05-03T05:46:52.741Z,10.30
2023-05-03T05:47:52.743Z,9.50
2023-05-03T05:48:52.663Z,10.00
2023-05-03T05:49:52.658Z,8.90
2023-05-03T05:50:52.631Z,10.00
2023-05-03T05:51:52.656Z,9.40
2023-05-03T05:52:52.637Z,8.70
2023-05-03T05:53:52.624Z,9.00
2023-05-03T05:54:52.630Z,9.00
2023-05-03T05:55:52.610Z,8.70
2023-05-03T05:56:52.586Z,10.40
2023-05-03T05:57:52.607Z,9.50
2023-05-03T05:58:52.573Z,11.20
2023-05-03T05:59:52.770Z,9.40
2023-05-03T06:00:52.622Z,9.00
2023-05-03T06:01:52.655Z,13.00
2023-05-03T06:02:52.696Z,13.60
2023-05-03T06:03:52.508Z,9.60
2023-05-03T06:04:52.517Z,8.80
2023-05-03T06:05:52.512Z,10.30
2023-05-03T06:06:52.694Z,10.20
2023-05-03T06:07:52.492Z,9.30
2023-05-03T06:08:52.459Z,9.20
2023-05-03T06:09:52.468Z,9.10
2023-05-03T06:10:52.440Z,10.50
2023-05-03T06:11:52.431Z,9.80
2023-05-03T06:12:52.462Z,9.10
2023-05-03T06:13:52.405Z,10.50
2023-05-03T06:15:01.847Z,11.20
2023-05-03T06:15:52.403Z,9.60
2023-05-03T06:16:53.073Z,10.30
2023-05-03T06:17:52.413Z,9.80
2023-05-03T06:18:52.359Z,8.50
2023-05-03T06:19:52.345Z,10.50
2023-05-03T06:20:52.324Z,10.50
2023-05-03T06:21:52.334Z,8.80
2023-05-03T06:22:52.316Z,9.60
2023-05-03T06:23:52.315Z,9.80
2023-05-03T06:24:52.308Z,9.50
2023-05-03T06:25:52.277Z,12.80
2023-05-03T06:26:52.278Z,10.40
2023-05-03T06:27:52.252Z,10.10
2023-05-03T06:28:52.271Z,9.40
2023-05-03T06:29:52.257Z,10.10
2023-05-03T06:30:52.267Z,9.60
2023-05-03T06:31:52.222Z,10.40
2023-05-03T06:32:52.259Z,10.10
2023-05-03T06:33:52.222Z,11.60
2023-05-03T06:34:52.201Z,11.10
2023-05-03T06:35:52.196Z,9.90
2023-05-03T06:36:52.180Z,9.10
2023-05-03T06:37:52.224Z,13.00
2023-05-03T06:38:52.165Z,9.50
2023-05-03T06:39:52.159Z,10.10
2023-05-03T06:40:52.119Z,9.70
2023-05-03T06:41:52.143Z,9.10
2023-05-03T06:42:52.110Z,10.30
2023-05-03T06:43:52.111Z,9.80
2023-05-03T06:44:52.070Z,10.50
2023-05-03T06:45:52.093Z,8.60
2023-05-03T06:46:52.117Z,11.30
2023-05-03T06:47:52.114Z,9.60
2023-05-03T06:48:52.078Z,9.60
2023-05-03T06:49:52.054Z,8.50
2023-05-03T06:50:52.021Z,9.40
2023-05-03T06:51:52.059Z,9.90
2023-05-03T06:52:51.997Z,12.20
2023-05-03T06:53:51.994Z,11.70
2023-05-03T06:54:51.995Z,9.50
2023-05-03T06:55:52.002Z,10.30
2023-05-03T06:56:51.976Z,8.10
2023-05-03T06:57:51.949Z,13.00
2023-05-03T06:58:51.947Z,11.10
2023-05-03T06:59:51.952Z,8.80
2023-05-03T07:00:51.942Z,9.60
2023-05-03T07:01:52.007Z,12.80
2023-05-03T07:02:51.969Z,10.60
2023-05-03T07:03:52.021Z,11.90
2023-05-03T07:04:51.885Z,9.50
2023-05-03T07:05:51.884Z,12.30
2023-05-03T07:06:56.524Z,10.00
2023-05-03T07:07:51.844Z,10.00
2023-05-03T07:08:51.836Z,9.00
2023-05-03T07:09:51.825Z,10.10
2023-05-03T07:10:51.834Z,10.90
2023-05-03T07:11:51.829Z,11.40
2023-05-03T07:12:51.791Z,9.80
2023-05-03T07:13:51.795Z,11.50
2023-05-03T07:14:51.787Z,11.30
2023-05-03T07:15:51.834Z,8.80
2023-05-03T07:16:51.762Z,12.10
2023-05-03T07:17:51.852Z,10.50
2023-05-03T07:18:51.735Z,10.20
2023-05-03T07:19:51.725Z,12.00
2023-05-03T07:20:51.710Z,10.40
2023-05-03T07:21:51.727Z,9.30
2023-05-03T07:22:51.688Z,11.10
2023-05-03T07:23:51.678Z,10.30
2023-05-03T07:24:51.707Z,9.10
2023-05-03T07:25:51.668Z,9.90
2023-05-03T07:26:51.668Z,10.70
2023-05-03T07:27:51.665Z,10.40
2023-05-03T07:28:51.633Z,11.20
2023-05-03T07:29:51.645Z,11.20
2023-05-03T07:30:51.619Z,9.10
2023-05-03T07:31:53.462Z,12.60
2023-05-03T07:32:51.631Z,11.20
2023-05-03T07:33:51.726Z,10.60
2023-05-03T07:34:51.559Z,10.60
2023-05-03T07:35:51.545Z,10.50
2023-05-03T07:36:51.549Z,9.80
2023-05-03T07:37:51.564Z,10.40
2023-05-03T07:38:51.526Z,9.90
2023-05-03T07:39:51.507Z,10.30
2023-05-03T07:40:51.494Z,12.60
2023-05-03T07:41:51.522Z,11.70
2023-05-03T07:42:51.546Z,10.60
2023-05-03T07:43:51.483Z,11.50
2023-05-03T07:44:51.489Z,10.00
2023-05-03T07:45:51.528Z,10.10
2023-05-03T07:46:51.479Z,10.70
2023-05-03T07:47:51.508Z,9.90
2023-05-03T07:48:51.480Z,11.80
2023-05-03T07:49:51.430Z,9.80
2023-05-03T07:50:51.447Z,10.60
2023-05-03T07:51:51.395Z,11.40
2023-05-03T07:52:51.410Z,9.80
2023-05-03T07:53:51.375Z,11.20
2023-05-03T07:54:51.378Z,12.50
2023-05-03T07:55:51.371Z,10.60
2023-05-03T07:56:52.078Z,9.40
2023-05-03T07:57:51.351Z,9.90
2023-05-03T07:59:00.909Z,9.50
2023-05-03T07:59:51.312Z,11.80
2023-05-03T08:00:51.285Z,9.70
2023-05-03T08:01:51.314Z,9.00
2023-05-03T08:02:51.402Z,10.00
2023-05-03T08:03:51.427Z,11.70
2023-05-03T08:04:51.562Z,11.60
2023-05-03T08:05:51.312Z,9.50
2023-05-03T08:06:51.274Z,9.20
2023-05-03T08:07:51.228Z,11.10
2023-05-03T08:08:51.236Z,10.50
2023-05-03T08:09:51.210Z,10.70
2023-05-03T08:10:51.196Z,9.00
2023-05-03T08:11:51.204Z,9.20
2023-05-03T08:12:51.167Z,13.30
2023-05-03T08:13:51.173Z,9.50
2023-05-03T08:14:51.176Z,8.80
2023-05-03T08:15:51.204Z,13.10
2023-05-03T08:16:51.127Z,10.70
2023-05-03T08:17:51.230Z,9.90
2023-05-03T08:18:51.122Z,11.30
2023-05-03T08:19:51.103Z,12.10
2023-05-03T08:20:51.106Z,9.20
2023-05-03T08:21:51.091Z,12.10
2023-05-03T08:22:51.065Z,8.40
2023-05-03T08:23:51.091Z,10.40
2023-05-03T08:24:51.072Z,10.20
2023-05-03T08:25:51.042Z,9.00
2023-05-03T08:26:51.034Z,9.70
2023-05-03T08:27:51.146Z,9.00
2023-05-03T08:28:51.006Z,9.70
2023-05-03T08:29:51.016Z,7.90
2023-05-03T08:30:51.005Z,9.70
2023-05-03T08:31:51.108Z,9.20
2023-05-03T08:32:51.024Z,10.10
2023-05-03T08:33:50.959Z,9.20
2023-05-03T08:34:50.963Z,10.50
2023-05-03T08:35:50.948Z,8.50
2023-05-03T08:36:50.919Z,10.10
2023-05-03T08:37:50.942Z,10.60
2023-05-03T08:38:50.922Z,9.50
2023-05-03T08:39:50.911Z,9.50
2023-05-03T08:40:50.883Z,9.20
2023-05-03T08:41:50.873Z,10.70
2023-05-03T08:42:50.874Z,8.90
2023-05-03T08:43:50.866Z,9.60
2023-05-03T08:44:50.831Z,9.20
2023-05-03T08:45:50.826Z,8.80
2023-05-03T08:46:50.860Z,8.70
2023-05-03T08:47:50.871Z,7.90
2023-05-03T08:48:50.796Z,9.90
2023-05-03T08:49:50.778Z,9.50
2023-05-03T08:50:50.770Z,9.50
2023-05-03T08:51:50.767Z,9.50
2023-05-03T08:52:50.777Z,9.70
2023-05-03T08:53:50.783Z,11.70
2023-05-03T08:54:50.731Z,9.70
2023-05-03T08:55:50.726Z,8.20
2023-05-03T08:56:50.718Z,8.40
2023-05-03T08:57:50.732Z,7.60
2023-05-03T08:58:50.691Z,10.20
2023-05-03T08:59:50.692Z,9.20
2023-05-03T09:00:50.674Z,10.30
2023-05-03T09:01:51.899Z,10.10
2023-05-03T09:02:50.707Z,10.70
2023-05-03T09:03:50.769Z,9.30
2023-05-03T09:04:50.639Z,10.50
2023-05-03T09:05:50.615Z,9.10
2023-05-03T09:06:50.671Z,9.60
2023-05-03T09:07:50.629Z,11.90
2023-05-03T09:08:50.592Z,8.40
2023-05-03T09:09:50.632Z,9.40
2023-05-03T09:10:50.565Z,10.40
2023-05-03T09:11:50.574Z,10.50
2023-05-03T09:12:50.545Z,8.80
2023-05-03T09:13:50.637Z,8.60
2023-05-03T09:14:50.525Z,10.40
2023-05-03T09:15:51.628Z,11.70
2023-05-03T09:16:50.554Z,11.20
2023-05-03T09:17:50.539Z,9.80
2023-05-03T09:18:50.495Z,10.60
2023-05-03T09:19:50.464Z,9.40
2023-05-03T09:20:50.488Z,9.20
2023-05-03T09:21:50.444Z,10.30
2023-05-03T09:22:50.446Z,8.70
2023-05-03T09:23:50.421Z,10.90
2023-05-03T09:24:50.441Z,10.10
2023-05-03T09:25:50.430Z,8.70
2023-05-03T09:26:50.435Z,8.60
2023-05-03T09:27:50.393Z,10.40
2023-05-03T09:28:50.414Z,8.40
2023-05-03T09:29:50.386Z,11.20
2023-05-03T09:30:50.398Z,7.70
2023-05-03T09:31:50.380Z,8.20
2023-05-03T09:32:50.387Z,8.20
2023-05-03T09:33:50.340Z,9.50
2023-05-03T09:34:50.351Z,10.50
2023-05-03T09:35:50.314Z,9.90
2023-05-03T09:36:50.289Z,8.20
2023-05-03T09:37:50.286Z,11.80
2023-05-03T09:38:50.301Z,9.10
2023-05-03T09:39:50.292Z,10.80
2023-05-03T09:40:50.256Z,7.70
2023-05-03T09:41:50.252Z,8.70
2023-05-03T09:42:50.258Z,10.70
2023-05-03T09:43:50.251Z,8.10
2023-05-03T09:44:50.253Z,8.90
2023-05-03T09:45:50.244Z,8.80
2023-05-03T09:46:50.193Z,8.90
2023-05-03T09:47:50.209Z,11.50
2023-05-03T09:48:50.199Z,8.30
2023-05-03T09:49:50.160Z,8.20
2023-05-03T09:50:50.164Z,9.70
2023-05-03T09:51:50.151Z,8.80
2023-05-03T09:52:50.141Z,9.10
2023-05-03T09:53:50.137Z,8.40
2023-05-03T09:54:50.139Z,8.40
2023-05-03T09:55:50.097Z,8.10
2023-05-03T09:56:50.094Z,8.00
2023-05-03T09:57:50.075Z,8.00
2023-05-03T09:58:50.090Z,11.00
2023-05-03T09:59:50.050Z,9.60
2023-05-03T10:00:52.051Z,9.00
2023-05-03T10:01:50.140Z,7.00
2023-05-03T10:02:50.098Z,8.30
2023-05-03T10:03:50.132Z,8.70
2023-05-03T10:04:50.014Z,7.80
2023-05-03T10:05:49.995Z,8.30
2023-05-03T10:06:50.116Z,9.60
2023-05-03T10:07:49.988Z,7.50
2023-05-03T10:08:49.969Z,9.30
2023-05-03T10:09:49.984Z,8.20
2023-05-03T10:10:49.957Z,9.60
2023-05-03T10:11:49.947Z,9.20
2023-05-03T10:12:49.942Z,8.90
2023-05-03T10:13:49.909Z,9.10
2023-05-03T10:14:49.898Z,9.80
2023-05-03T10:15:49.923Z,8.00
2023-05-03T10:16:49.887Z,9.30
2023-05-03T10:17:49.923Z,10.20
2023-05-03T10:18:49.868Z,8.10
2023-05-03T10:19:49.837Z,8.60
2023-05-03T10:20:49.833Z,7.70
2023-05-03T10:21:49.855Z,9.30
2023-05-03T10:22:49.836Z,9.00
2023-05-03T10:23:49.820Z,7.30
2023-05-03T10:24:49.807Z,8.40
2023-05-03T10:25:49.782Z,8.00
2023-05-03T10:26:49.802Z,7.30
2023-05-03T10:27:49.775Z,9.30
2023-05-03T10:28:49.771Z,7.90
2023-05-03T10:29:49.793Z,7.20
2023-05-03T10:30:49.757Z,7.20
2023-05-03T10:31:49.838Z,12.90
2023-05-03T10:32:49.759Z,10.70
2023-05-03T10:33:49.726Z,8.70
2023-05-03T10:34:49.722Z,8.10
2023-05-03T10:35:50.004Z,8.30
2023-05-03T10:36:50.183Z,9.00
2023-05-03T10:37:49.654Z,8.80
2023-05-03T10:38:49.655Z,7.40
2023-05-03T10:39:49.656Z,8.50
2023-05-03T10:40:49.696Z,8.00
2023-05-03T10:41:49.612Z,8.00
2023-05-03T10:42:49.953Z,8.30
2023-05-03T10:43:49.610Z,7.80
2023-05-03T10:44:49.600Z,7.60
2023-05-03T10:45:49.648Z,9.90
2023-05-03T10:46:49.612Z,7.10
2023-05-03T10:47:49.564Z,6.70
2023-05-03T10:48:49.547Z,9.30
2023-05-03T10:49:50.025Z,9.30
2023-05-03T10:50:49.531Z,7.10
2023-05-03T10:51:49.520Z,8.20
2023-05-03T10:52:49.505Z,7.90
2023-05-03T10:53:49.507Z,7.20
2023-05-03T10:54:49.504Z,7.10
2023-05-03T10:55:49.471Z,6.80
2023-05-03T10:56:49.468Z,7.30
2023-05-03T10:57:49.467Z,7.80
2023-05-03T10:58:49.488Z,8.10
2023-05-03T10:59:49.428Z,10.00
2023-05-03T11:00:49.407Z,8.00
2023-05-03T11:01:49.441Z,7.20
2023-05-03T11:02:49.437Z,7.40
2023-05-03T11:03:49.461Z,7.10
2023-05-03T11:04:49.425Z,6.90
2023-05-03T11:05:49.363Z,8.60
2023-05-03T11:06:49.544Z,8.50
2023-05-03T11:07:49.368Z,7.90
2023-05-03T11:08:49.346Z,8.80
2023-05-03T11:09:49.324Z,6.80
2023-05-03T11:10:49.319Z,6.90
2023-05-03T11:11:49.299Z,8.50
2023-05-03T11:12:49.312Z,7.60
2023-05-03T11:13:49.299Z,7.90
2023-05-03T11:14:49.443Z,10.10
2023-05-03T11:15:49.270Z,7.20
2023-05-03T11:16:49.339Z,6.60
2023-05-03T11:17:49.284Z,9.40
2023-05-03T11:18:49.228Z,7.90
2023-05-03T11:19:49.210Z,8.20
2023-05-03T11:20:49.225Z,7.10
2023-05-03T11:21:49.211Z,7.70
2023-05-03T11:22:49.200Z,7.20
2023-05-03T11:23:49.178Z,7.10
2023-05-03T11:24:49.180Z,8.20
2023-05-03T11:25:49.168Z,8.30
2023-05-03T11:26:49.216Z,7.40
2023-05-03T11:27:49.154Z,7.30
2023-05-03T11:28:49.134Z,6.80
2023-05-03T11:29:49.112Z,6.70
2023-05-03T11:30:49.113Z,7.20
2023-05-03T11:31:49.157Z,8.00
2023-05-03T11:32:49.109Z,5.40
2023-05-03T11:33:49.078Z,6.30
2023-05-03T11:34:49.097Z,5.60
2023-05-03T11:35:49.046Z,7.50
2023-05-03T11:36:49.056Z,7.80
2023-05-03T11:37:49.021Z,6.20
2023-05-03T11:38:49.022Z,7.00
2023-05-03T11:39:49.017Z,6.50
2023-05-03T11:40:49.031Z,6.80
2023-05-03T11:41:48.977Z,6.40
2023-05-03T11:42:49.000Z,6.80
2023-05-03T11:43:54.915Z,6.40
2023-05-03T11:44:48.982Z,8.10
2023-05-03T11:45:49.007Z,8.50
2023-05-03T11:46:49.216Z,6.30
2023-05-03T11:47:49.005Z,8.50
2023-05-03T11:48:48.939Z,7.20
2023-05-03T11:49:48.907Z,9.10
2023-05-03T11:50:48.947Z,7.00
2023-05-03T11:51:52.592Z,6.80
2023-05-03T11:52:48.895Z,6.30
2023-05-03T11:53:48.890Z,6.00
2023-05-03T11:54:48.867Z,7.50
2023-05-03T11:55:48.857Z,7.90
2023-05-03T11:56:50.347Z,6.40
2023-05-03T11:57:48.815Z,7.90
2023-05-03T11:58:48.839Z,6.70
2023-05-03T11:59:48.822Z,8.60
2023-05-03T12:00:48.823Z,6.70
2023-05-03T12:01:48.789Z,6.30
2023-05-03T12:02:49.004Z,7.30
2023-05-03T12:03:48.916Z,6.80
2023-05-03T12:04:48.966Z,7.20
2023-05-03T12:05:49.731Z,6.70
2023-05-03T12:06:48.999Z,6.80
2023-05-03T12:07:48.968Z,6.00
2023-05-03T12:08:48.857Z,8.10
2023-05-03T12:10:01.261Z,9.00
2023-05-03T12:10:49.868Z,8.30
2023-05-03T12:11:50.939Z,7.80
2023-05-03T12:12:52.380Z,8.10
2023-05-03T12:13:48.792Z,6.20
2023-05-03T12:14:50.355Z,7.50
2023-05-03T12:15:58.290Z,9.90
2023-05-03T12:16:50.455Z,5.60
2023-05-03T12:17:50.365Z,5.40
2023-05-03T12:18:48.765Z,7.40
2023-05-03T12:19:49.048Z,5.70
2023-05-03T12:22:02.977Z,5.30
2023-05-03T12:22:50.401Z,6.20
2023-05-03T12:23:50.151Z,7.00
2023-05-03T12:24:49.790Z,7.10
2023-05-03T12:25:49.445Z,6.40
2023-05-03T12:26:49.012Z,6.10
2023-05-03T12:28:00.521Z,5.50
2023-05-03T12:28:48.633Z,8.90
2023-05-03T12:29:50.339Z,5.90
2023-05-03T12:30:48.621Z,9.40
2023-05-03T12:31:49.550Z,7.10
2023-05-03T12:32:49.727Z,5.90
2023-05-03T12:34:05.669Z,6.60
2023-05-03T12:34:50.729Z,5.40
2023-05-03T12:35:48.778Z,6.70
2023-05-03T12:36:49.138Z,5.30
2023-05-03T12:37:49.572Z,7.50
2023-05-03T12:39:52.286Z,5.90
2023-05-03T12:40:48.463Z,7.50
2023-05-03T12:42:48.369Z,6.60
2023-05-03T12:43:50.825Z,8.70
2023-05-03T12:44:48.521Z,4.90
2023-05-03T12:46:00.145Z,6.40
2023-05-03T12:46:49.798Z,7.30
2023-05-03T12:47:50.324Z,6.00
2023-05-03T12:48:48.457Z,5.50
2023-05-03T12:49:51.942Z,5.30
2023-05-03T12:50:51.883Z,6.70
2023-05-03T12:51:57.653Z,5.60
2023-05-03T12:52:52.410Z,8.30
2023-05-03T12:53:48.434Z,6.90
2023-05-03T12:54:49.057Z,6.30
2023-05-03T12:55:51.409Z,6.10
2023-05-03T12:56:48.609Z,5.50
2023-05-03T12:57:58.574Z,8.80
2023-05-03T12:59:07.285Z,6.80
2023-05-03T12:59:52.215Z,5.70
2023-05-03T13:01:15.828Z,5.40
2023-05-03T13:03:08.973Z,6.50
2023-05-03T13:03:32.380Z,7.40
2023-05-03T13:04:05.169Z,7.40
2023-05-03T13:05:48.436Z,5.50
2023-05-03T13:06:48.397Z,7.10
2023-05-03T13:07:55.601Z,6.40
2023-05-03T13:08:50.212Z,4.70
2023-05-03T13:10:48.146Z,7.00
2023-05-03T13:11:48.924Z,4.90
2023-05-03T13:12:48.100Z,4.90
2023-05-03T13:13:48.121Z,5.50
2023-05-03T13:14:48.081Z,6.50
2023-05-03T13:15:48.036Z,7.30
2023-05-03T13:16:48.104Z,5.40
2023-05-03T13:17:49.515Z,6.00
2023-05-03T13:18:48.045Z,5.90